createdAt,value
2019-02-17T00:00:55.485Z,99.90
2019-02-17T00:03:26.726Z,99.90
2019-02-17T00:05:56.924Z,99.90
2019-02-17T00:08:27.376Z,99.90
2019-02-17T00:10:57.701Z,99.90
2019-02-17T00:13:28.447Z,99.90
2019-02-17T00:15:59.165Z,99.90
2019-02-17T00:18:29.703Z,99.90
2019-02-17T00:20:59.618Z,99.90
2019-02-17T00:23:30.160Z,99.90
2019-02-17T00:25:59.930Z,99.90
2019-02-17T00:28:29.776Z,99.90
2019-02-17T00:31:00.102Z,99.90
2019-02-17T00:33:31.046Z,99.90
2019-02-17T00:36:01.544Z,99.90
2019-02-17T00:38:31.723Z,99.90
2019-02-17T00:41:01.974Z,99.90
2019-02-17T00:43:32.131Z,99.90
2019-02-17T00:46:02.666Z,99.90
2019-02-17T00:48:33.094Z,99.90
2019-02-17T00:51:03.712Z,99.90
2019-02-17T00:53:33.948Z,99.90
2019-02-17T00:56:04.482Z,99.90
2019-02-17T00:58:34.882Z,99.90
2019-02-17T01:01:04.621Z,99.90
2019-02-17T01:03:34.742Z,99.90
2019-02-17T01:06:04.851Z,99.90
2019-02-17T01:08:35.287Z,99.90
2019-02-17T01:11:05.444Z,99.90
2019-02-17T01:13:35.842Z,99.90
2019-02-17T01:16:06.166Z,99.90
2019-02-17T01:18:36.484Z,99.90
2019-02-17T01:21:06.768Z,99.90
2019-02-17T01:23:37.446Z,99.90
2019-02-17T01:26:07.670Z,99.90
2019-02-17T01:28:37.789Z,99.90
2019-02-17T01:31:08.501Z,99.90
2019-02-17T01:33:38.953Z,99.90
2019-02-17T01:36:09.047Z,99.90
2019-02-17T01:38:42.402Z,99.90
2019-02-17T01:41:13.310Z,99.90
2019-02-17T01:43:43.632Z,99.90
2019-02-17T01:46:14.161Z,99.90
2019-02-17T01:48:44.281Z,99.90
2019-02-17T01:51:15.017Z,99.90
2019-02-17T01:53:45.053Z,99.90
2019-02-17T01:56:15.540Z,99.90
2019-02-17T01:58:45.890Z,99.90
2019-02-17T02:01:17.173Z,99.90
2019-02-17T02:03:47.564Z,99.90
2019-02-17T02:06:18.096Z,99.90
2019-02-17T02:08:48.775Z,99.90
2019-02-17T02:11:18.874Z,99.90
2019-02-17T02:13:48.998Z,99.90
2019-02-17T02:16:18.777Z,99.90
2019-02-17T02:18:49.002Z,99.90
2019-02-17T02:21:19.329Z,99.90
2019-02-17T02:23:49.477Z,99.90
2019-02-17T02:26:19.966Z,99.90
2019-02-17T02:28:50.071Z,99.90
2019-02-17T02:31:20.199Z,99.90
2019-02-17T02:33:50.732Z,99.90
2019-02-17T02:36:21.380Z,99.90
2019-02-17T02:38:51.580Z,99.90
2019-02-17T02:41:21.667Z,99.90
2019-02-17T02:43:52.260Z,99.90
2019-02-17T02:46:22.542Z,99.90
2019-02-17T02:48:52.730Z,99.90
2019-02-17T02:51:23.435Z,99.90
2019-02-17T02:53:53.966Z,99.90
2019-02-17T02:56:24.149Z,99.90
2019-02-17T02:58:54.697Z,99.90
2019-02-17T03:01:24.630Z,99.90
2019-02-17T03:03:54.813Z,99.90
2019-02-17T03:06:34.605Z,99.90
2019-02-17T03:09:05.436Z,99.90
2019-02-17T03:11:35.914Z,99.90
2019-02-17T03:14:06.399Z,99.90
2019-02-17T03:16:37.716Z,99.90
2019-02-17T03:19:08.233Z,99.90
2019-02-17T03:21:38.565Z,99.90
2019-02-17T03:24:08.790Z,99.90
2019-02-17T03:26:38.941Z,99.90
2019-02-17T03:29:09.167Z,99.90
2019-02-17T03:31:39.398Z,99.90
2019-02-17T03:34:09.813Z,99.90
2019-02-17T03:36:40.657Z,99.90
2019-02-17T03:39:11.390Z,99.90
2019-02-17T03:41:42.238Z,99.90
2019-02-17T03:44:12.759Z,99.90
2019-02-17T03:46:42.878Z,99.90
2019-02-17T03:49:13.307Z,99.90
2019-02-17T03:51:43.425Z,99.90
2019-02-17T03:54:13.957Z,99.90
2019-02-17T03:56:44.649Z,99.90
2019-02-17T03:59:15.119Z,99.90
2019-02-17T04:01:45.390Z,99.90
2019-02-17T04:04:15.853Z,99.90
2019-02-17T04:06:46.190Z,99.90
2019-02-17T04:09:16.419Z,99.90
2019-02-17T04:11:46.847Z,99.90
2019-02-17T04:14:16.848Z,99.90
2019-02-17T04:16:46.945Z,99.90
2019-02-17T04:19:17.485Z,99.90
2019-02-17T04:21:47.911Z,99.90
2019-02-17T04:24:18.642Z,99.90
2019-02-17T04:26:48.507Z,99.90
2019-02-17T04:29:18.817Z,99.90
2019-02-17T04:31:48.992Z,99.90
2019-02-17T04:34:19.160Z,99.90
2019-02-17T04:36:49.335Z,99.90
2019-02-17T04:39:19.345Z,99.90
2019-02-17T04:41:49.705Z,99.90
2019-02-17T04:44:19.952Z,99.90
2019-02-17T04:46:50.220Z,99.90
2019-02-17T04:49:21.628Z,99.90
2019-02-17T04:51:51.749Z,99.90
2019-02-17T04:54:22.174Z,99.90
2019-02-17T04:56:51.988Z,99.90
2019-02-17T04:59:22.720Z,99.90
2019-02-17T05:01:53.071Z,99.90
2019-02-17T05:04:23.371Z,99.90
2019-02-17T05:06:53.597Z,99.90
2019-02-17T05:09:23.564Z,99.90
2019-02-17T05:11:54.422Z,99.90
2019-02-17T05:14:24.397Z,99.90
2019-02-17T05:16:54.742Z,99.90
2019-02-17T05:19:25.332Z,99.90
2019-02-17T05:21:55.546Z,99.90
2019-02-17T05:24:25.771Z,99.90
2019-02-17T05:26:56.432Z,99.90
2019-02-17T05:29:26.624Z,99.90
2019-02-17T05:31:56.540Z,99.90
2019-02-17T05:34:26.785Z,99.90
2019-02-17T05:36:56.929Z,99.90
2019-02-17T05:39:27.085Z,99.90
2019-02-17T05:41:57.307Z,99.90
2019-02-17T05:44:27.632Z,99.90
2019-02-17T05:46:57.775Z,99.90
2019-02-17T05:49:27.520Z,99.90
2019-02-17T05:51:57.796Z,99.90
2019-02-17T05:54:27.996Z,99.90
2019-02-17T05:56:58.142Z,99.90
2019-02-17T05:59:28.708Z,99.90
2019-02-17T06:01:58.398Z,99.90
2019-02-17T06:04:28.780Z,99.90
2019-02-17T06:06:58.942Z,99.90
2019-02-17T06:09:28.863Z,99.90
2019-02-17T06:11:58.941Z,99.90
2019-02-17T06:14:28.946Z,99.90
2019-02-17T06:16:59.017Z,99.90
2019-02-17T06:19:29.000Z,99.90
2019-02-17T06:21:59.418Z,99.90
2019-02-17T06:24:29.686Z,99.90
2019-02-17T06:26:59.906Z,99.90
2019-02-17T06:29:29.566Z,99.90
2019-02-17T06:31:59.775Z,99.90
2019-02-17T06:34:29.482Z,99.90
2019-02-17T06:37:00.024Z,99.90
2019-02-17T06:39:29.904Z,99.90
2019-02-17T06:42:00.210Z,99.90
2019-02-17T06:44:30.051Z,99.90
2019-02-17T06:47:03.789Z,99.90
2019-02-17T06:49:34.109Z,99.90
2019-02-17T06:52:21.856Z,99.90
2019-02-17T06:55:10.563Z,99.90
2019-02-17T06:57:41.604Z,99.90
2019-02-17T07:00:24.500Z,99.90
2019-02-17T07:02:54.377Z,99.90
2019-02-17T07:05:45.043Z,99.90
2019-02-17T07:08:14.668Z,99.90
2019-02-17T07:10:44.413Z,99.90
2019-02-17T07:13:13.866Z,99.90
2019-02-17T07:15:43.883Z,99.90
2019-02-17T07:18:13.878Z,99.90
2019-02-17T07:20:43.814Z,99.90
2019-02-17T07:23:15.335Z,99.90
2019-02-17T07:25:45.362Z,99.90
2019-02-17T07:28:15.225Z,99.90
2019-02-17T07:30:47.236Z,99.90
2019-02-17T07:33:17.294Z,99.90
2019-02-17T07:35:47.175Z,99.90
2019-02-17T07:38:17.174Z,99.90
2019-02-17T07:40:46.830Z,99.90
2019-02-17T07:43:16.580Z,99.90
2019-02-17T07:45:46.336Z,99.90
2019-02-17T07:48:16.272Z,99.90
2019-02-17T07:50:46.215Z,99.90
2019-02-17T07:53:16.250Z,99.90
2019-02-17T07:55:46.340Z,99.90
2019-02-17T07:58:16.094Z,99.90
2019-02-17T08:00:45.577Z,99.90
2019-02-17T08:03:15.373Z,99.90
2019-02-17T08:05:45.018Z,99.90
2019-02-17T08:08:15.281Z,99.90
2019-02-17T08:10:44.898Z,99.90
2019-02-17T08:13:14.892Z,99.90
2019-02-17T08:15:44.890Z,99.90
2019-02-17T08:18:15.070Z,99.90
2019-02-17T08:20:45.133Z,99.90
2019-02-17T08:23:14.919Z,99.90
2019-02-17T08:25:44.666Z,99.90
2019-02-17T08:28:14.305Z,99.90
2019-02-17T08:30:43.912Z,99.90
2019-02-17T08:33:13.654Z,99.90
2019-02-17T08:35:43.573Z,99.90
2019-02-17T08:38:13.239Z,99.90
2019-02-17T08:40:42.640Z,99.90
2019-02-17T08:43:12.308Z,99.90
2019-02-17T08:45:41.955Z,99.90
2019-02-17T08:48:11.588Z,99.90
2019-02-17T08:50:41.166Z,99.90
2019-02-17T08:53:10.810Z,99.90
2019-02-17T08:55:40.480Z,99.90
2019-02-17T08:58:10.093Z,99.90
2019-02-17T09:00:40.109Z,99.90
2019-02-17T09:03:10.013Z,99.90
2019-02-17T09:05:44.211Z,99.90
2019-02-17T09:08:11.111Z,99.90
2019-02-17T09:10:40.813Z,99.90
2019-02-17T09:13:10.382Z,99.90
2019-02-17T09:15:40.298Z,99.90
2019-02-17T09:18:09.847Z,99.90
2019-02-17T09:20:39.370Z,99.90
2019-02-17T09:23:09.253Z,99.90
2019-02-17T09:25:38.821Z,99.90
2019-02-17T09:28:08.406Z,99.90
2019-02-17T09:30:38.169Z,99.90
2019-02-17T09:33:07.741Z,99.90
2019-02-17T09:35:37.247Z,99.90
2019-02-17T09:38:06.953Z,99.90
2019-02-17T09:40:36.660Z,99.90
2019-02-17T09:43:06.369Z,99.30
2019-02-17T09:45:36.286Z,99.90
2019-02-17T09:48:06.099Z,99.70
2019-02-17T09:50:36.007Z,99.20
2019-02-17T09:53:05.766Z,97.60
2019-02-17T09:55:35.321Z,96.60
2019-02-17T09:58:05.772Z,97.60
2019-02-17T10:00:35.531Z,98.00
2019-02-17T10:03:05.172Z,97.70
2019-02-17T10:05:34.874Z,97.20
2019-02-17T10:08:04.691Z,97.10
2019-02-17T10:10:34.446Z,96.80
2019-02-17T10:13:04.028Z,97.00
2019-02-17T10:15:34.085Z,96.90
2019-02-17T10:18:03.847Z,95.80
2019-02-17T10:20:33.728Z,96.90
2019-02-17T10:23:03.726Z,96.50
2019-02-17T10:25:33.152Z,96.00
2019-02-17T10:28:02.884Z,96.00
2019-02-17T10:30:32.466Z,95.70
2019-02-17T10:33:02.117Z,95.90
2019-02-17T10:35:32.166Z,94.90
2019-02-17T10:38:02.120Z,94.30
2019-02-17T10:40:32.164Z,94.80
2019-02-17T10:43:03.606Z,94.30
2019-02-17T10:45:33.606Z,93.20
2019-02-17T10:48:03.249Z,92.90
2019-02-17T10:50:33.004Z,92.50
2019-02-17T10:53:02.784Z,92.70
2019-02-17T10:55:32.764Z,92.60
2019-02-17T10:58:02.230Z,92.70
2019-02-17T11:00:32.044Z,92.10
2019-02-17T11:03:09.730Z,92.40
2019-02-17T11:05:39.365Z,91.40
2019-02-17T11:08:09.024Z,90.70
2019-02-17T11:10:38.643Z,90.50
2019-02-17T11:13:08.772Z,90.70
2019-02-17T11:15:38.644Z,90.80
2019-02-17T11:18:08.647Z,90.10
2019-02-17T11:20:38.207Z,90.70
2019-02-17T11:23:08.118Z,90.20
2019-02-17T11:25:37.930Z,88.50
2019-02-17T11:28:07.328Z,87.70
2019-02-17T11:30:37.245Z,84.60
2019-02-17T11:33:07.067Z,82.90
2019-02-17T11:35:36.720Z,83.30
2019-02-17T11:38:06.362Z,80.60
2019-02-17T11:40:36.078Z,81.80
2019-02-17T11:43:06.139Z,80.20
2019-02-17T11:45:36.246Z,80.60
2019-02-17T11:48:06.000Z,79.40
2019-02-17T11:50:36.365Z,77.10
2019-02-17T11:53:06.130Z,77.60
2019-02-17T11:55:35.999Z,76.60
2019-02-17T11:58:05.762Z,76.10
2019-02-17T12:00:35.691Z,76.60
2019-02-17T12:03:07.928Z,75.90
2019-02-17T12:05:36.720Z,75.80
2019-02-17T12:08:06.561Z,75.10
2019-02-17T12:10:36.163Z,73.50
2019-02-17T12:13:06.006Z,71.80
2019-02-17T12:15:35.762Z,72.30
2019-02-17T12:18:05.401Z,71.70
2019-02-17T12:20:57.424Z,72.70
2019-02-17T12:23:39.897Z,70.50
2019-02-17T12:26:26.645Z,72.10
2019-02-17T12:29:04.542Z,68.10
2019-02-17T12:31:36.601Z,70.30
2019-02-17T12:34:05.910Z,71.10
2019-02-17T12:36:35.758Z,70.30
2019-02-17T12:39:09.057Z,68.00
2019-02-17T12:41:38.882Z,69.40
2019-02-17T12:44:08.732Z,68.50
2019-02-17T12:46:38.235Z,68.00
2019-02-17T12:49:07.681Z,68.50
2019-02-17T12:51:37.142Z,66.80
2019-02-17T12:54:06.954Z,65.00
2019-02-17T12:56:36.723Z,63.90
2019-02-17T12:59:06.477Z,64.40
2019-02-17T13:01:36.476Z,63.40
2019-02-17T13:04:06.197Z,63.70
2019-02-17T13:06:35.639Z,62.90
2019-02-17T13:09:07.679Z,63.90
2019-02-17T13:11:37.559Z,65.90
2019-02-17T13:14:07.279Z,62.70
2019-02-17T13:16:37.203Z,62.70
2019-02-17T13:19:06.957Z,62.20
2019-02-17T13:21:36.410Z,63.30
2019-02-17T13:24:06.114Z,61.00
2019-02-17T13:26:35.721Z,59.70
2019-02-17T13:29:05.635Z,60.40
2019-02-17T13:31:35.092Z,60.50
2019-02-17T13:34:04.915Z,60.20
2019-02-17T13:36:34.659Z,62.00
2019-02-17T13:39:05.523Z,61.20
2019-02-17T13:41:35.208Z,62.40
2019-02-17T13:44:05.321Z,61.00
2019-02-17T13:46:35.153Z,60.80
2019-02-17T13:49:04.677Z,61.30
2019-02-17T13:51:34.548Z,61.60
2019-02-17T13:54:04.460Z,62.20
2019-02-17T13:56:34.440Z,62.80
2019-02-17T13:59:03.888Z,63.70
2019-02-17T14:01:33.714Z,63.90
2019-02-17T14:04:03.407Z,64.70
2019-02-17T14:06:33.606Z,62.40
2019-02-17T14:09:03.721Z,62.10
2019-02-17T14:11:33.717Z,62.50
2019-02-17T14:14:03.042Z,63.50
2019-02-17T14:16:32.661Z,62.70
2019-02-17T14:19:02.393Z,62.30
2019-02-17T14:21:32.074Z,61.00
2019-02-17T14:24:02.039Z,62.10
2019-02-17T14:26:44.043Z,62.40
2019-02-17T14:29:13.723Z,62.30
2019-02-17T14:31:43.714Z,63.20
2019-02-17T14:34:13.417Z,61.40
2019-02-17T14:36:42.920Z,60.30
2019-02-17T14:39:12.634Z,60.80
2019-02-17T14:41:42.594Z,60.60
2019-02-17T14:44:12.470Z,61.70
2019-02-17T14:46:42.167Z,60.90
2019-02-17T14:49:30.250Z,60.50
2019-02-17T14:52:00.113Z,60.20
2019-02-17T14:54:29.621Z,59.70
2019-02-17T14:56:59.840Z,61.00
2019-02-17T14:59:29.446Z,60.90
2019-02-17T15:01:59.268Z,60.60
2019-02-17T15:04:29.094Z,61.10
2019-02-17T15:06:59.631Z,61.10
2019-02-17T15:09:29.398Z,61.50
2019-02-17T15:11:59.389Z,61.50
2019-02-17T15:14:28.829Z,61.10
2019-02-17T15:16:58.430Z,60.50
2019-02-17T15:19:28.191Z,60.20
2019-02-17T15:21:57.953Z,58.70
2019-02-17T15:24:27.404Z,59.00
2019-02-17T15:26:57.483Z,59.10
2019-02-17T15:29:27.229Z,58.50
2019-02-17T15:31:56.577Z,58.80
2019-02-17T15:34:26.266Z,58.70
2019-02-17T15:36:55.687Z,58.20
2019-02-17T15:39:25.551Z,58.50
2019-02-17T15:41:55.185Z,60.20
2019-02-17T15:44:24.919Z,60.70
2019-02-17T15:46:54.835Z,60.50
2019-02-17T15:49:24.390Z,62.30
2019-02-17T15:51:54.357Z,60.90
2019-02-17T15:54:23.987Z,60.40
2019-02-17T15:56:54.115Z,60.90
2019-02-17T15:59:23.480Z,61.80
2019-02-17T16:01:52.977Z,61.40
2019-02-17T16:04:28.610Z,62.70
2019-02-17T16:06:54.442Z,61.80
2019-02-17T16:09:24.108Z,62.30
2019-02-17T16:11:53.654Z,64.70
2019-02-17T16:14:23.514Z,62.50
2019-02-17T16:16:53.381Z,66.40
2019-02-17T16:19:22.991Z,67.60
2019-02-17T16:21:52.491Z,67.00
2019-02-17T16:24:22.066Z,66.50
2019-02-17T16:26:51.804Z,68.90
2019-02-17T16:29:21.468Z,69.90
2019-02-17T16:31:51.223Z,69.20
2019-02-17T16:34:21.112Z,72.10
2019-02-17T16:36:50.740Z,73.10
2019-02-17T16:39:20.265Z,73.70
2019-02-17T16:41:49.852Z,73.20
2019-02-17T16:44:19.423Z,76.40
2019-02-17T16:46:48.943Z,77.70
2019-02-17T16:49:18.773Z,79.00
2019-02-17T16:51:48.224Z,82.40
2019-02-17T16:54:17.824Z,82.30
2019-02-17T16:56:47.324Z,83.90
2019-02-17T16:59:17.095Z,84.10
2019-02-17T17:01:46.805Z,85.00
2019-02-17T17:04:16.414Z,86.50
2019-02-17T17:06:46.203Z,87.00
2019-02-17T17:09:16.342Z,88.90
2019-02-17T17:11:47.177Z,91.70
2019-02-17T17:14:17.789Z,92.30
2019-02-17T17:16:49.258Z,93.50
2019-02-17T17:19:19.305Z,94.60
2019-02-17T17:21:49.725Z,96.10
2019-02-17T17:24:19.780Z,96.10
2019-02-17T17:26:49.820Z,96.20
2019-02-17T17:29:20.396Z,96.60
2019-02-17T17:31:50.138Z,97.40
2019-02-17T17:34:20.170Z,99.30
2019-02-17T17:36:50.327Z,99.60
2019-02-17T17:39:20.261Z,99.90
2019-02-17T17:41:50.863Z,99.90
2019-02-17T17:44:20.866Z,99.90
2019-02-17T17:46:51.363Z,99.90
2019-02-17T17:49:21.598Z,99.90
2019-02-17T17:51:51.752Z,99.90
2019-02-17T17:54:22.071Z,99.90
2019-02-17T17:56:52.070Z,99.90
2019-02-17T17:59:21.727Z,99.90
2019-02-17T18:01:51.465Z,99.90
2019-02-17T18:04:21.861Z,99.90
2019-02-17T18:06:53.662Z,99.90
2019-02-17T18:09:24.114Z,99.90
2019-02-17T18:11:54.470Z,99.90
2019-02-17T18:14:24.731Z,99.90
2019-02-17T18:16:54.965Z,99.90
2019-02-17T18:19:25.085Z,99.90
2019-02-17T18:21:55.363Z,99.90
2019-02-17T18:24:26.818Z,99.90
2019-02-17T18:26:57.241Z,99.90
2019-02-17T18:29:27.157Z,99.90
2019-02-17T18:31:57.379Z,99.90
2019-02-17T18:34:27.350Z,99.90
2019-02-17T18:36:57.832Z,99.90
2019-02-17T18:39:28.189Z,99.90
2019-02-17T18:41:58.683Z,99.90
2019-02-17T18:44:28.775Z,99.90
2019-02-17T18:46:58.873Z,99.90
2019-02-17T18:49:29.015Z,99.90
2019-02-17T18:51:59.231Z,99.90
2019-02-17T18:54:29.374Z,99.90
2019-02-17T18:57:08.057Z,99.90
2019-02-17T18:59:30.943Z,99.90
2019-02-17T19:02:00.942Z,99.90
2019-02-17T19:04:31.306Z,99.90
2019-02-17T19:07:01.522Z,99.90
2019-02-17T19:09:31.659Z,99.90
2019-02-17T19:12:01.774Z,99.90
2019-02-17T19:14:32.150Z,99.90
2019-02-17T19:17:02.519Z,99.90
2019-02-17T19:19:32.509Z,99.90
2019-02-17T19:22:02.627Z,99.30
2019-02-17T19:24:32.578Z,99.20
2019-02-17T19:27:02.495Z,99.10
2019-02-17T19:29:33.814Z,99.00
2019-02-17T19:32:04.063Z,98.80
2019-02-17T19:34:34.502Z,98.50
2019-02-17T19:37:04.666Z,98.50
2019-02-17T19:39:34.806Z,98.50
2019-02-17T19:42:05.056Z,98.60
2019-02-17T19:44:35.038Z,98.30
2019-02-17T19:47:05.399Z,98.30
2019-02-17T19:49:36.016Z,98.30
2019-02-17T19:52:06.336Z,98.50
2019-02-17T19:54:36.949Z,98.80
2019-02-17T19:57:07.087Z,98.70
2019-02-17T19:59:37.424Z,98.50
2019-02-17T20:02:07.531Z,98.50
2019-02-17T20:04:43.559Z,98.50
2019-02-17T20:07:13.421Z,98.50
2019-02-17T20:09:43.273Z,98.40
2019-02-17T20:12:13.533Z,98.20
2019-02-17T20:14:43.894Z,98.20
2019-02-17T20:17:14.203Z,98.30
2019-02-17T20:19:44.269Z,98.60
2019-02-17T20:22:14.565Z,98.70
2019-02-17T20:24:44.630Z,98.80
2019-02-17T20:27:14.806Z,98.60
2019-02-17T20:29:45.035Z,98.50
2019-02-17T20:32:15.114Z,98.70
2019-02-17T20:34:45.212Z,99.20
2019-02-17T20:37:15.449Z,99.10
2019-02-17T20:39:45.512Z,99.40
2019-02-17T20:42:15.422Z,99.50
2019-02-17T20:44:45.699Z,99.40
2019-02-17T20:47:16.179Z,99.50
2019-02-17T20:49:46.286Z,99.60
2019-02-17T20:52:16.429Z,99.60
2019-02-17T20:54:46.414Z,99.90
2019-02-17T20:57:16.832Z,99.90
2019-02-17T20:59:47.007Z,99.90
2019-02-17T21:02:17.023Z,99.90
2019-02-17T21:04:47.421Z,99.90
2019-02-17T21:07:19.751Z,99.90
2019-02-17T21:09:49.940Z,99.90
2019-02-17T21:12:20.253Z,99.90
2019-02-17T21:14:50.350Z,99.90
2019-02-17T21:17:20.488Z,99.90
2019-02-17T21:19:50.373Z,99.90
2019-02-17T21:22:20.323Z,99.90
2019-02-17T21:24:51.108Z,99.90
2019-02-17T21:27:23.226Z,99.90
2019-02-17T21:29:54.135Z,99.90
2019-02-17T21:32:24.032Z,99.90
2019-02-17T21:34:54.090Z,99.90
2019-02-17T21:37:23.986Z,99.90
2019-02-17T21:39:54.690Z,99.90
2019-02-17T21:42:25.292Z,99.90
2019-02-17T21:44:55.561Z,99.90
2019-02-17T21:47:25.494Z,99.90
2019-02-17T21:49:57.107Z,99.90
2019-02-17T21:52:27.333Z,99.90
2019-02-17T21:54:57.446Z,99.90
2019-02-17T21:57:33.990Z,99.90
2019-02-17T22:00:04.859Z,99.90
2019-02-17T22:02:36.039Z,99.90
2019-02-17T22:05:07.967Z,99.90
2019-02-17T22:07:42.889Z,99.90
2019-02-17T22:10:13.190Z,99.90
2019-02-17T22:12:44.726Z,99.90
2019-02-17T22:15:16.200Z,99.90
2019-02-17T22:17:46.265Z,99.90
2019-02-17T22:20:23.991Z,99.90
2019-02-17T22:22:55.890Z,99.90
2019-02-17T22:25:25.841Z,99.90
2019-02-17T22:27:59.024Z,99.90
2019-02-17T22:30:29.385Z,99.90
2019-02-17T22:32:59.537Z,99.90
2019-02-17T22:35:30.352Z,99.90
2019-02-17T22:38:00.694Z,99.90
2019-02-17T22:40:40.351Z,99.90
2019-02-17T22:43:10.428Z,99.90
2019-02-17T22:45:43.649Z,99.90
2019-02-17T22:48:14.161Z,99.90
2019-02-17T22:50:44.615Z,99.90
2019-02-17T22:53:17.605Z,99.90
2019-02-17T22:55:57.147Z,99.90
2019-02-17T22:58:25.012Z,99.90
2019-02-17T23:01:01.934Z,99.90
2019-02-17T23:03:35.600Z,99.90
2019-02-17T23:06:06.328Z,99.90
2019-02-17T23:08:38.978Z,99.90
2019-02-17T23:11:11.148Z,99.90
2019-02-17T23:13:41.329Z,99.90
2019-02-17T23:16:11.866Z,99.90
2019-02-17T23:18:44.474Z,99.90
2019-02-17T23:21:14.119Z,99.90
2019-02-17T23:23:44.943Z,99.90
2019-02-17T23:26:14.993Z,99.90
2019-02-17T23:28:48.689Z,99.90
2019-02-17T23:31:20.666Z,99.90
2019-02-17T23:33:52.406Z,99.90
2019-02-17T23:36:25.040Z,99.90
2019-02-17T23:38:55.399Z,99.90
2019-02-17T23:41:25.755Z,99.90
2019-02-17T23:44:02.510Z,99.90
2019-02-17T23:46:36.591Z,99.90
2019-02-17T23:49:08.726Z,99.90
2019-02-17T23:51:39.012Z,99.90
2019-02-17T23:54:09.219Z,99.90
2019-02-17T23:56:39.596Z,99.90
2019-02-17T23:59:10.617Z,99.90
